sensor_id;sensor_type;location;lat;lon;timestamp;temperature;humidity
35313;DHT22;21425;50.454;30.466;2022-08-20T00:01:03;17.50;99.90
35313;DHT22;21425;50.454;30.466;2022-08-20T00:03:38;16.70;99.90
35313;DHT22;21425;50.454;30.466;2022-08-20T00:06:16;16.50;99.90
35313;DHT22;21425;50.454;30.466;2022-08-20T00:08:43;16.90;99.90
35313;DHT22;21425;50.454;30.466;2022-08-20T00:11:12;16.70;99.90
35313;DHT22;21425;50.454;30.466;2022-08-20T00:13:42;16.70;99.90
35313;DHT22;21425;50.454;30.466;2022-08-20T00:16:08;16.70;99.90
35313;DHT22;21425;50.454;30.466;2022-08-20T00:18:35;16.00;99.90
35313;DHT22;21425;50.454;30.466;2022-08-20T00:21:11;16.60;99.90
35313;DHT22;21425;50.454;30.466;2022-08-20T00:23:42;17.70;99.90
35313;DHT22;21425;50.454;30.466;2022-08-20T00:26:08;17.20;99.90
35313;DHT22;21425;50.454;30.466;2022-08-20T00:28:36;18.60;99.90
35313;DHT22;21425;50.454;30.466;2022-08-20T00:31:04;16.60;99.90
35313;DHT22;21425;50.454;30.466;2022-08-20T00:33:30;16.50;99.90
35313;DHT22;21425;50.454;30.466;2022-08-20T00:35:56;16.50;99.90
35313;DHT22;21425;50.454;30.466;2022-08-20T00:38:25;16.50;99.90
35313;DHT22;21425;50.454;30.466;2022-08-20T00:40:54;16.60;99.90
35313;DHT22;21425;50.454;30.466;2022-08-20T00:43:48;16.50;99.90
35313;DHT22;21425;50.454;30.466;2022-08-20T00:46:22;17.20;99.90
35313;DHT22;21425;50.454;30.466;2022-08-20T00:48:51;16.50;99.90
35313;DHT22;21425;50.454;30.466;2022-08-20T00:54:06;16.40;99.90
35313;DHT22;21425;50.454;30.466;2022-08-20T00:56:34;16.90;99.90
35313;DHT22;21425;50.454;30.466;2022-08-20T00:59:01;17.20;99.90
35313;DHT22;21425;50.454;30.466;2022-08-20T01:01:27;16.40;99.90
35313;DHT22;21425;50.454;30.466;2022-08-20T01:03:53;16.40;99.90
35313;DHT22;21425;50.454;30.466;2022-08-20T01:06:22;16.30;99.90
35313;DHT22;21425;50.454;30.466;2022-08-20T01:08:49;16.40;99.90
35313;DHT22;21425;50.454;30.466;2022-08-20T01:11:15;16.40;99.90
35313;DHT22;21425;50.454;30.466;2022-08-20T01:13:43;16.50;99.90
35313;DHT22;21425;50.454;30.466;2022-08-20T01:16:21;16.40;99.90
35313;DHT22;21425;50.454;30.466;2022-08-20T01:18:48;16.50;99.90
35313;DHT22;21425;50.454;30.466;2022-08-20T01:21:16;16.50;99.90
35313;DHT22;21425;50.454;30.466;2022-08-20T01:23:53;16.50;99.90
35313;DHT22;21425;50.454;30.466;2022-08-20T01:26:27;16.50;99.90
35313;DHT22;21425;50.454;30.466;2022-08-20T01:29:07;16.50;99.90
35313;DHT22;21425;50.454;30.466;2022-08-20T01:31:36;16.40;99.90
35313;DHT22;21425;50.454;30.466;2022-08-20T01:34:05;16.70;99.90
35313;DHT22;21425;50.454;30.466;2022-08-20T01:36:52;16.30;99.90
35313;DHT22;21425;50.454;30.466;2022-08-20T01:39:21;16.30;99.90
35313;DHT22;21425;50.454;30.466;2022-08-20T01:44:33;16.20;99.90
35313;DHT22;21425;50.454;30.466;2022-08-20T01:47:14;16.20;99.90
35313;DHT22;21425;50.454;30.466;2022-08-20T01:49:43;16.20;99.90
35313;DHT22;21425;50.454;30.466;2022-08-20T01:52:14;16.10;99.90
35313;DHT22;21425;50.454;30.466;2022-08-20T01:54:43;16.10;99.90
35313;DHT22;21425;50.454;30.466;2022-08-20T01:57:18;16.10;99.90
35313;DHT22;21425;50.454;30.466;2022-08-20T01:59:46;16.10;99.90
35313;DHT22;21425;50.454;30.466;2022-08-20T02:04:40;16.10;99.90
35313;DHT22;21425;50.454;30.466;2022-08-20T02:07:10;16.20;99.90
35313;DHT22;21425;50.454;30.466;2022-08-20T02:09:37;16.50;99.90
35313;DHT22;21425;50.454;30.466;2022-08-20T02:12:05;16.30;99.90
35313;DHT22;21425;50.454;30.466;2022-08-20T02:14:31;16.40;99.90
35313;DHT22;21425;50.454;30.466;2022-08-20T02:16:58;16.40;99.90
35313;DHT22;21425;50.454;30.466;2022-08-20T02:19:45;17.90;99.90
35313;DHT22;21425;50.454;30.466;2022-08-20T02:22:20;16.30;99.90
35313;DHT22;21425;50.454;30.466;2022-08-20T02:24:46;16.40;99.90
35313;DHT22;21425;50.454;30.466;2022-08-20T02:27:12;16.40;99.90
35313;DHT22;21425;50.454;30.466;2022-08-20T02:29:37;16.40;99.90
35313;DHT22;21425;50.454;30.466;2022-08-20T02:32:04;16.10;99.90
35313;DHT22;21425;50.454;30.466;2022-08-20T02:34:31;16.40;99.90
35313;DHT22;21425;50.454;30.466;2022-08-20T02:37:00;16.50;99.90
35313;DHT22;21425;50.454;30.466;2022-08-20T02:39:25;17.30;99.90
35313;DHT22;21425;50.454;30.466;2022-08-20T02:41:51;16.50;99.90
35313;DHT22;21425;50.454;30.466;2022-08-20T02:44:17;16.50;99.90
35313;DHT22;21425;50.454;30.466;2022-08-20T02:46:46;16.70;99.90
35313;DHT22;21425;50.454;30.466;2022-08-20T02:51:39;16.80;99.90
35313;DHT22;21425;50.454;30.466;2022-08-20T02:54:05;17.20;99.90
35313;DHT22;21425;50.454;30.466;2022-08-20T02:56:30;16.80;99.90
35313;DHT22;21425;50.454;30.466;2022-08-20T02:58:56;16.60;99.90
35313;DHT22;21425;50.454;30.466;2022-08-20T03:01:21;16.40;99.90
35313;DHT22;21425;50.454;30.466;2022-08-20T03:03:47;16.60;99.90
35313;DHT22;21425;50.454;30.466;2022-08-20T03:06:14;16.60;99.90
35313;DHT22;21425;50.454;30.466;2022-08-20T03:08:40;16.70;99.90
35313;DHT22;21425;50.454;30.466;2022-08-20T03:11:06;16.70;99.90
35313;DHT22;21425;50.454;30.466;2022-08-20T03:13:32;17.60;99.90
35313;DHT22;21425;50.454;30.466;2022-08-20T03:16:00;16.70;99.90
35313;DHT22;21425;50.454;30.466;2022-08-20T03:18:33;16.80;99.90
35313;DHT22;21425;50.454;30.466;2022-08-20T03:21:00;16.90;99.90
35313;DHT22;21425;50.454;30.466;2022-08-20T03:23:26;16.80;99.90
35313;DHT22;21425;50.454;30.466;2022-08-20T03:25:51;17.60;99.90
35313;DHT22;21425;50.454;30.466;2022-08-20T03:28:18;17.10;99.90
35313;DHT22;21425;50.454;30.466;2022-08-20T03:30:44;16.90;99.90
35313;DHT22;21425;50.454;30.466;2022-08-20T03:33:10;17.20;99.90
35313;DHT22;21425;50.454;30.466;2022-08-20T03:35:36;17.10;99.90
35313;DHT22;21425;50.454;30.466;2022-08-20T03:38:09;17.20;99.90
35313;DHT22;21425;50.454;30.466;2022-08-20T03:40:35;17.60;99.90
35313;DHT22;21425;50.454;30.466;2022-08-20T03:45:28;17.60;99.90
35313;DHT22;21425;50.454;30.466;2022-08-20T03:47:54;17.40;99.90
35313;DHT22;21425;50.454;30.466;2022-08-20T03:50:24;17.40;99.90
35313;DHT22;21425;50.454;30.466;2022-08-20T03:52:52;17.40;99.90
35313;DHT22;21425;50.454;30.466;2022-08-20T03:55:19;18.50;99.90
35313;DHT22;21425;50.454;30.466;2022-08-20T03:57:48;17.40;99.90
35313;DHT22;21425;50.454;30.466;2022-08-20T04:00:17;17.30;99.90
35313;DHT22;21425;50.454;30.466;2022-08-20T04:02:45;17.70;99.90
35313;DHT22;21425;50.454;30.466;2022-08-20T04:05:11;17.20;99.90
35313;DHT22;21425;50.454;30.466;2022-08-20T04:07:37;17.30;99.90
35313;DHT22;21425;50.454;30.466;2022-08-20T04:10:06;17.80;99.90
35313;DHT22;21425;50.454;30.466;2022-08-20T04:15:10;17.40;99.90
35313;DHT22;21425;50.454;30.466;2022-08-20T04:17:39;17.30;99.90
35313;DHT22;21425;50.454;30.466;2022-08-20T04:20:09;17.40;99.90
35313;DHT22;21425;50.454;30.466;2022-08-20T04:22:35;17.50;99.90
35313;DHT22;21425;50.454;30.466;2022-08-20T04:25:01;16.20;99.90
35313;DHT22;21425;50.454;30.466;2022-08-20T04:29:59;17.70;99.90
35313;DHT22;21425;50.454;30.466;2022-08-20T04:34:53;18.40;99.90
35313;DHT22;21425;50.454;30.466;2022-08-20T04:37:21;17.80;99.90
35313;DHT22;21425;50.454;30.466;2022-08-20T04:39:47;17.90;99.90
35313;DHT22;21425;50.454;30.466;2022-08-20T04:42:35;17.50;99.90
35313;DHT22;21425;50.454;30.466;2022-08-20T04:45:02;17.90;99.90
35313;DHT22;21425;50.454;30.466;2022-08-20T04:47:27;18.00;99.90
35313;DHT22;21425;50.454;30.466;2022-08-20T04:49:53;18.10;99.90
35313;DHT22;21425;50.454;30.466;2022-08-20T04:52:25;18.10;99.90
35313;DHT22;21425;50.454;30.466;2022-08-20T04:54:52;18.20;99.90
35313;DHT22;21425;50.454;30.466;2022-08-20T04:57:21;18.10;99.90
35313;DHT22;21425;50.454;30.466;2022-08-20T04:59:47;17.20;99.90
35313;DHT22;21425;50.454;30.466;2022-08-20T05:02:12;17.80;99.90
35313;DHT22;21425;50.454;30.466;2022-08-20T05:04:38;19.20;99.90
35313;DHT22;21425;50.454;30.466;2022-08-20T05:07:03;18.90;99.90
35313;DHT22;21425;50.454;30.466;2022-08-20T05:09:29;19.40;99.90
35313;DHT22;21425;50.454;30.466;2022-08-20T05:14:23;18.50;99.90
35313;DHT22;21425;50.454;30.466;2022-08-20T05:16:48;18.60;99.90
35313;DHT22;21425;50.454;30.466;2022-08-20T05:19:15;18.60;99.90
35313;DHT22;21425;50.454;30.466;2022-08-20T05:21:41;18.70;99.90
35313;DHT22;21425;50.454;30.466;2022-08-20T05:24:07;18.70;99.90
35313;DHT22;21425;50.454;30.466;2022-08-20T05:26:34;17.80;99.90
35313;DHT22;21425;50.454;30.466;2022-08-20T05:29:00;18.90;99.90
35313;DHT22;21425;50.454;30.466;2022-08-20T05:31:29;18.90;99.90
35313;DHT22;21425;50.454;30.466;2022-08-20T05:33:55;19.30;99.90
35313;DHT22;21425;50.454;30.466;2022-08-20T05:36:22;19.50;99.90
35313;DHT22;21425;50.454;30.466;2022-08-20T05:38:47;19.70;99.90
35313;DHT22;21425;50.454;30.466;2022-08-20T05:41:13;20.00;99.90
35313;DHT22;21425;50.454;30.466;2022-08-20T05:43:39;20.10;99.90
35313;DHT22;21425;50.454;30.466;2022-08-20T05:46:04;19.40;99.90
35313;DHT22;21425;50.454;30.466;2022-08-20T05:48:30;20.10;99.90
35313;DHT22;21425;50.454;30.466;2022-08-20T05:50:59;20.40;99.90
35313;DHT22;21425;50.454;30.466;2022-08-20T05:53:25;20.60;99.90
35313;DHT22;21425;50.454;30.466;2022-08-20T05:55:51;19.20;99.90
35313;DHT22;21425;50.454;30.466;2022-08-20T05:58:24;20.60;99.90
35313;DHT22;21425;50.454;30.466;2022-08-20T06:00:52;21.30;99.90
35313;DHT22;21425;50.454;30.466;2022-08-20T06:03:18;20.80;99.90
35313;DHT22;21425;50.454;30.466;2022-08-20T06:06:03;21.00;99.90
35313;DHT22;21425;50.454;30.466;2022-08-20T06:08:29;21.20;99.90
35313;DHT22;21425;50.454;30.466;2022-08-20T06:10:55;21.50;99.90
35313;DHT22;21425;50.454;30.466;2022-08-20T06:13:21;20.60;99.90
35313;DHT22;21425;50.454;30.466;2022-08-20T06:15:48;21.40;99.90
35313;DHT22;21425;50.454;30.466;2022-08-20T06:20:39;19.20;99.90
35313;DHT22;21425;50.454;30.466;2022-08-20T06:23:06;20.80;99.90
35313;DHT22;21425;50.454;30.466;2022-08-20T06:27:59;20.80;99.90
35313;DHT22;21425;50.454;30.466;2022-08-20T06:30:25;20.50;99.90
35313;DHT22;21425;50.454;30.466;2022-08-20T06:32:51;20.70;99.90
35313;DHT22;21425;50.454;30.466;2022-08-20T06:35:16;20.30;99.90
35313;DHT22;21425;50.454;30.466;2022-08-20T06:37:42;21.20;99.90
35313;DHT22;21425;50.454;30.466;2022-08-20T06:40:14;19.40;99.90
35313;DHT22;21425;50.454;30.466;2022-08-20T06:42:40;19.80;99.90
35313;DHT22;21425;50.454;30.466;2022-08-20T06:45:10;20.90;99.90
35313;DHT22;21425;50.454;30.466;2022-08-20T06:47:39;20.30;99.90
35313;DHT22;21425;50.454;30.466;2022-08-20T06:50:18;20.30;99.90
35313;DHT22;21425;50.454;30.466;2022-08-20T06:52:44;20.20;99.90
35313;DHT22;21425;50.454;30.466;2022-08-20T06:55:13;20.80;99.90
35313;DHT22;21425;50.454;30.466;2022-08-20T06:57:39;21.30;99.90
35313;DHT22;21425;50.454;30.466;2022-08-20T07:00:16;20.80;99.90
35313;DHT22;21425;50.454;30.466;2022-08-20T07:02:42;21.80;99.90
35313;DHT22;21425;50.454;30.466;2022-08-20T07:05:08;21.70;99.90
35313;DHT22;21425;50.454;30.466;2022-08-20T07:07:33;20.90;99.90
35313;DHT22;21425;50.454;30.466;2022-08-20T07:10:10;21.60;99.90
35313;DHT22;21425;50.454;30.466;2022-08-20T07:12:36;23.20;99.90
35313;DHT22;21425;50.454;30.466;2022-08-20T07:15:08;21.10;99.90
35313;DHT22;21425;50.454;30.466;2022-08-20T07:20:13;21.30;99.90
35313;DHT22;21425;50.454;30.466;2022-08-20T07:22:40;20.40;99.90
35313;DHT22;21425;50.454;30.466;2022-08-20T07:25:09;20.90;99.90
35313;DHT22;21425;50.454;30.466;2022-08-20T07:27:36;20.70;99.90
35313;DHT22;21425;50.454;30.466;2022-08-20T07:30:05;21.00;99.90
35313;DHT22;21425;50.454;30.466;2022-08-20T07:35:17;22.70;99.90
35313;DHT22;21425;50.454;30.466;2022-08-20T07:37:45;21.20;99.90
35313;DHT22;21425;50.454;30.466;2022-08-20T07:40:13;21.10;99.90
35313;DHT22;21425;50.454;30.466;2022-08-20T07:45:08;22.80;99.90
35313;DHT22;21425;50.454;30.466;2022-08-20T07:47:36;21.00;99.90
35313;DHT22;21425;50.454;30.466;2022-08-20T07:50:05;22.00;99.90
35313;DHT22;21425;50.454;30.466;2022-08-20T07:52:31;21.40;99.90
35313;DHT22;21425;50.454;30.466;2022-08-20T07:57:25;21.90;99.90
35313;DHT22;21425;50.454;30.466;2022-08-20T07:59:50;22.70;99.90
35313;DHT22;21425;50.454;30.466;2022-08-20T08:02:16;23.90;99.90
35313;DHT22;21425;50.454;30.466;2022-08-20T08:09:34;23.10;99.90
35313;DHT22;21425;50.454;30.466;2022-08-20T08:12:01;23.70;99.90
35313;DHT22;21425;50.454;30.466;2022-08-20T08:14:30;23.20;99.90
35313;DHT22;21425;50.454;30.466;2022-08-20T08:17:00;23.20;99.90
35313;DHT22;21425;50.454;30.466;2022-08-20T08:19:28;23.80;99.90
35313;DHT22;21425;50.454;30.466;2022-08-20T08:24:24;22.20;99.90
35313;DHT22;21425;50.454;30.466;2022-08-20T08:26:50;23.60;99.90
35313;DHT22;21425;50.454;30.466;2022-08-20T08:29:16;21.70;99.90
35313;DHT22;21425;50.454;30.466;2022-08-20T08:31:42;23.90;99.90
35313;DHT22;21425;50.454;30.466;2022-08-20T08:34:08;23.60;99.90
35313;DHT22;21425;50.454;30.466;2022-08-20T08:36:34;24.10;99.90
35313;DHT22;21425;50.454;30.466;2022-08-20T08:38:59;23.10;99.90
35313;DHT22;21425;50.454;30.466;2022-08-20T08:41:32;23.70;99.90
35313;DHT22;21425;50.454;30.466;2022-08-20T08:46:40;23.40;99.90
35313;DHT22;21425;50.454;30.466;2022-08-20T08:49:10;23.80;99.90
35313;DHT22;21425;50.454;30.466;2022-08-20T08:51:42;25.30;99.90
35313;DHT22;21425;50.454;30.466;2022-08-20T08:54:15;24.10;99.90
35313;DHT22;21425;50.454;30.466;2022-08-20T08:56:41;23.40;99.90
35313;DHT22;21425;50.454;30.466;2022-08-20T08:59:08;24.30;99.90
35313;DHT22;21425;50.454;30.466;2022-08-20T09:01:42;23.80;99.90
35313;DHT22;21425;50.454;30.466;2022-08-20T09:04:14;24.30;99.90
35313;DHT22;21425;50.454;30.466;2022-08-20T09:06:41;24.20;99.90
35313;DHT22;21425;50.454;30.466;2022-08-20T09:09:16;23.50;99.90
35313;DHT22;21425;50.454;30.466;2022-08-20T09:11:51;24.10;99.90
35313;DHT22;21425;50.454;30.466;2022-08-20T09:14:20;24.90;99.90
35313;DHT22;21425;50.454;30.466;2022-08-20T09:16:49;25.30;99.90
35313;DHT22;21425;50.454;30.466;2022-08-20T09:19:15;23.00;99.90
35313;DHT22;21425;50.454;30.466;2022-08-20T09:21:41;24.00;99.90
35313;DHT22;21425;50.454;30.466;2022-08-20T09:24:06;24.30;99.90
35313;DHT22;21425;50.454;30.466;2022-08-20T09:26:32;24.20;99.90
35313;DHT22;21425;50.454;30.466;2022-08-20T09:31:23;23.30;99.90
35313;DHT22;21425;50.454;30.466;2022-08-20T09:33:50;25.00;99.90
35313;DHT22;21425;50.454;30.466;2022-08-20T09:38:42;23.30;99.90
35313;DHT22;21425;50.454;30.466;2022-08-20T09:41:07;25.60;99.90
35313;DHT22;21425;50.454;30.466;2022-08-20T09:43:33;26.00;99.90
35313;DHT22;21425;50.454;30.466;2022-08-20T09:45:58;25.70;99.90
35313;DHT22;21425;50.454;30.466;2022-08-20T09:48:24;25.70;99.90
35313;DHT22;21425;50.454;30.466;2022-08-20T09:53:17;25.70;99.90
35313;DHT22;21425;50.454;30.466;2022-08-20T09:55:47;24.70;99.90
35313;DHT22;21425;50.454;30.466;2022-08-20T10:00:49;23.70;99.90
35313;DHT22;21425;50.454;30.466;2022-08-20T10:03:15;22.50;99.90
35313;DHT22;21425;50.454;30.466;2022-08-20T10:05:40;23.20;99.90
35313;DHT22;21425;50.454;30.466;2022-08-20T10:08:07;22.90;99.90
35313;DHT22;21425;50.454;30.466;2022-08-20T10:10:33;23.20;99.90
35313;DHT22;21425;50.454;30.466;2022-08-20T10:12:59;24.40;99.90
35313;DHT22;21425;50.454;30.466;2022-08-20T10:15:25;24.30;99.90
35313;DHT22;21425;50.454;30.466;2022-08-20T10:20:17;25.20;99.90
35313;DHT22;21425;50.454;30.466;2022-08-20T10:22:44;23.00;99.90
35313;DHT22;21425;50.454;30.466;2022-08-20T10:25:10;25.10;99.90
35313;DHT22;21425;50.454;30.466;2022-08-20T10:30:04;23.40;99.90
35313;DHT22;21425;50.454;30.466;2022-08-20T10:32:30;23.50;99.90
35313;DHT22;21425;50.454;30.466;2022-08-20T10:37:23;23.30;99.90
35313;DHT22;21425;50.454;30.466;2022-08-20T10:39:49;25.30;99.90
35313;DHT22;21425;50.454;30.466;2022-08-20T10:42:14;23.10;99.90
35313;DHT22;21425;50.454;30.466;2022-08-20T10:44:40;23.80;99.90
35313;DHT22;21425;50.454;30.466;2022-08-20T10:47:29;25.30;99.90
35313;DHT22;21425;50.454;30.466;2022-08-20T10:49:57;25.20;99.90
35313;DHT22;21425;50.454;30.466;2022-08-20T10:52:24;24.40;99.90
35313;DHT22;21425;50.454;30.466;2022-08-20T10:54:51;25.50;99.90
35313;DHT22;21425;50.454;30.466;2022-08-20T10:57:27;25.30;99.90
35313;DHT22;21425;50.454;30.466;2022-08-20T10:59:54;25.30;99.90
35313;DHT22;21425;50.454;30.466;2022-08-20T11:02:21;24.50;99.90
35313;DHT22;21425;50.454;30.466;2022-08-20T11:04:48;24.20;99.90
35313;DHT22;21425;50.454;30.466;2022-08-20T11:09:40;22.70;99.90
35313;DHT22;21425;50.454;30.466;2022-08-20T11:12:06;22.90;99.90
35313;DHT22;21425;50.454;30.466;2022-08-20T11:14:31;22.70;99.90
35313;DHT22;21425;50.454;30.466;2022-08-20T11:16:58;21.10;99.90
35313;DHT22;21425;50.454;30.466;2022-08-20T11:19:24;23.30;99.90
35313;DHT22;21425;50.454;30.466;2022-08-20T11:21:50;22.20;99.90
35313;DHT22;21425;50.454;30.466;2022-08-20T11:24:15;23.10;99.90
35313;DHT22;21425;50.454;30.466;2022-08-20T11:26:41;24.20;99.90
35313;DHT22;21425;50.454;30.466;2022-08-20T11:29:06;23.00;99.90
35313;DHT22;21425;50.454;30.466;2022-08-20T11:31:32;22.60;99.90
35313;DHT22;21425;50.454;30.466;2022-08-20T11:33:58;23.50;99.90
35313;DHT22;21425;50.454;30.466;2022-08-20T11:38:51;22.90;99.90
35313;DHT22;21425;50.454;30.466;2022-08-20T11:51:01;24.90;99.90
35313;DHT22;21425;50.454;30.466;2022-08-20T11:53:27;25.00;99.90
35313;DHT22;21425;50.454;30.466;2022-08-20T11:58:18;23.10;99.90
35313;DHT22;21425;50.454;30.466;2022-08-20T12:00:44;25.60;99.90
35313;DHT22;21425;50.454;30.466;2022-08-20T12:03:11;25.60;99.90
35313;DHT22;21425;50.454;30.466;2022-08-20T12:05:38;25.40;99.90
35313;DHT22;21425;50.454;30.466;2022-08-20T12:08:04;25.90;99.90
35313;DHT22;21425;50.454;30.466;2022-08-20T12:10:31;26.60;99.90
35313;DHT22;21425;50.454;30.466;2022-08-20T12:12:56;26.40;99.90
35313;DHT22;21425;50.454;30.466;2022-08-20T12:15:23;26.30;99.90
35313;DHT22;21425;50.454;30.466;2022-08-20T12:20:15;25.20;97.90
35313;DHT22;21425;50.454;30.466;2022-08-20T12:22:41;25.30;98.80
35313;DHT22;21425;50.454;30.466;2022-08-20T12:25:08;25.50;99.90
35313;DHT22;21425;50.454;30.466;2022-08-20T12:27:35;25.00;99.90
35313;DHT22;21425;50.454;30.466;2022-08-20T12:30:05;25.40;99.90
35313;DHT22;21425;50.454;30.466;2022-08-20T12:34:58;25.10;99.90
35313;DHT22;21425;50.454;30.466;2022-08-20T12:37:26;24.80;99.90
35313;DHT22;21425;50.454;30.466;2022-08-20T12:39:54;23.80;99.90
35313;DHT22;21425;50.454;30.466;2022-08-20T12:42:21;25.20;99.90
35313;DHT22;21425;50.454;30.466;2022-08-20T12:44:47;23.30;99.90
35313;DHT22;21425;50.454;30.466;2022-08-20T12:47:17;23.40;99.90
35313;DHT22;21425;50.454;30.466;2022-08-20T12:49:49;23.60;99.90
35313;DHT22;21425;50.454;30.466;2022-08-20T12:52:18;23.70;99.90
35313;DHT22;21425;50.454;30.466;2022-08-20T12:54:44;23.20;99.90
35313;DHT22;21425;50.454;30.466;2022-08-20T12:57:27;23.30;99.90
35313;DHT22;21425;50.454;30.466;2022-08-20T12:59:58;23.30;99.90
35313;DHT22;21425;50.454;30.466;2022-08-20T13:02:25;22.60;99.90
35313;DHT22;21425;50.454;30.466;2022-08-20T13:04:50;23.10;99.90
35313;DHT22;21425;50.454;30.466;2022-08-20T13:07:16;24.90;99.90
35313;DHT22;21425;50.454;30.466;2022-08-20T13:09:42;25.30;99.90
35313;DHT22;21425;50.454;30.466;2022-08-20T13:12:09;23.80;99.90
35313;DHT22;21425;50.454;30.466;2022-08-20T13:14:35;24.40;99.90
35313;DHT22;21425;50.454;30.466;2022-08-20T13:19:29;26.70;99.90
35313;DHT22;21425;50.454;30.466;2022-08-20T13:21:55;28.20;99.90
35313;DHT22;21425;50.454;30.466;2022-08-20T13:24:21;26.40;99.90
35313;DHT22;21425;50.454;30.466;2022-08-20T13:26:47;26.10;99.90
35313;DHT22;21425;50.454;30.466;2022-08-20T13:29:14;25.50;99.90
35313;DHT22;21425;50.454;30.466;2022-08-20T13:36:32;24.50;99.90
35313;DHT22;21425;50.454;30.466;2022-08-20T13:43:51;23.10;99.90
35313;DHT22;21425;50.454;30.466;2022-08-20T13:46:16;24.00;99.90
35313;DHT22;21425;50.454;30.466;2022-08-20T13:48:42;22.20;99.90
35313;DHT22;21425;50.454;30.466;2022-08-20T13:51:08;23.50;99.90
35313;DHT22;21425;50.454;30.466;2022-08-20T13:53:34;23.90;99.90
35313;DHT22;21425;50.454;30.466;2022-08-20T13:55:59;23.50;99.90
35313;DHT22;21425;50.454;30.466;2022-08-20T13:58:25;23.70;99.90
35313;DHT22;21425;50.454;30.466;2022-08-20T14:00:50;25.00;99.90
35313;DHT22;21425;50.454;30.466;2022-08-20T14:03:16;25.60;99.90
35313;DHT22;21425;50.454;30.466;2022-08-20T14:05:42;24.80;99.90
35313;DHT22;21425;50.454;30.466;2022-08-20T14:08:15;25.10;99.90
35313;DHT22;21425;50.454;30.466;2022-08-20T14:10:41;23.10;99.90
35313;DHT22;21425;50.454;30.466;2022-08-20T14:15:34;25.20;99.90
35313;DHT22;21425;50.454;30.466;2022-08-20T14:18:01;24.70;99.90
35313;DHT22;21425;50.454;30.466;2022-08-20T14:20:30;24.50;99.90
35313;DHT22;21425;50.454;30.466;2022-08-20T14:22:57;25.70;99.90
35313;DHT22;21425;50.454;30.466;2022-08-20T14:25:24;26.10;99.90
35313;DHT22;21425;50.454;30.466;2022-08-20T14:27:51;27.60;99.90
35313;DHT22;21425;50.454;30.466;2022-08-20T14:30:26;25.30;99.90
35313;DHT22;21425;50.454;30.466;2022-08-20T14:35:19;25.50;99.90
35313;DHT22;21425;50.454;30.466;2022-08-20T14:37:50;24.70;99.90
35313;DHT22;21425;50.454;30.466;2022-08-20T14:40:21;24.90;99.90
35313;DHT22;21425;50.454;30.466;2022-08-20T14:42:47;22.60;99.90
35313;DHT22;21425;50.454;30.466;2022-08-20T14:47:43;24.00;99.90
35313;DHT22;21425;50.454;30.466;2022-08-20T14:50:17;23.70;99.90
35313;DHT22;21425;50.454;30.466;2022-08-20T14:55:13;23.70;99.90
35313;DHT22;21425;50.454;30.466;2022-08-20T14:57:40;23.40;99.90
35313;DHT22;21425;50.454;30.466;2022-08-20T15:00:09;24.30;99.90
35313;DHT22;21425;50.454;30.466;2022-08-20T15:02:35;22.40;99.90
35313;DHT22;21425;50.454;30.466;2022-08-20T15:05:02;23.50;99.90
35313;DHT22;21425;50.454;30.466;2022-08-20T15:07:31;21.90;99.90
35313;DHT22;21425;50.454;30.466;2022-08-20T15:09:58;22.30;99.90
35313;DHT22;21425;50.454;30.466;2022-08-20T15:12:25;23.30;99.90
35313;DHT22;21425;50.454;30.466;2022-08-20T15:14:50;23.30;99.90
35313;DHT22;21425;50.454;30.466;2022-08-20T15:17:26;22.30;99.90
35313;DHT22;21425;50.454;30.466;2022-08-20T15:19:52;24.70;99.90
35313;DHT22;21425;50.454;30.466;2022-08-20T15:24:44;23.40;99.90
35313;DHT22;21425;50.454;30.466;2022-08-20T15:27:20;23.40;99.90
35313;DHT22;21425;50.454;30.466;2022-08-20T15:29:46;22.90;99.90
35313;DHT22;21425;50.454;30.466;2022-08-20T15:32:12;24.60;99.90
35313;DHT22;21425;50.454;30.466;2022-08-20T15:34:39;22.90;99.90
35313;DHT22;21425;50.454;30.466;2022-08-20T15:37:14;24.30;99.90
35313;DHT22;21425;50.454;30.466;2022-08-20T15:39:44;22.80;99.90
35313;DHT22;21425;50.454;30.466;2022-08-20T15:42:10;23.00;99.90
35313;DHT22;21425;50.454;30.466;2022-08-20T15:44:37;22.60;99.90
35313;DHT22;21425;50.454;30.466;2022-08-20T15:47:33;23.60;99.90
35313;DHT22;21425;50.454;30.466;2022-08-20T15:50:05;21.80;99.90
35313;DHT22;21425;50.454;30.466;2022-08-20T15:52:36;23.30;99.90
35313;DHT22;21425;50.454;30.466;2022-08-20T15:55:03;23.40;99.90
35313;DHT22;21425;50.454;30.466;2022-08-20T15:57:54;23.20;99.90
35313;DHT22;21425;50.454;30.466;2022-08-20T16:00:41;24.50;99.90
35313;DHT22;21425;50.454;30.466;2022-08-20T16:06:09;23.20;99.90
35313;DHT22;21425;50.454;30.466;2022-08-20T16:11:54;23.80;99.90
35313;DHT22;21425;50.454;30.466;2022-08-20T16:14:28;20.70;99.90
35313;DHT22;21425;50.454;30.466;2022-08-20T16:17:06;21.80;99.90
35313;DHT22;21425;50.454;30.466;2022-08-20T16:20:02;21.70;99.90
35313;DHT22;21425;50.454;30.466;2022-08-20T16:22:32;20.70;99.90
35313;DHT22;21425;50.454;30.466;2022-08-20T16:24:58;20.30;99.90
35313;DHT22;21425;50.454;30.466;2022-08-20T16:30:16;21.00;99.90
35313;DHT22;21425;50.454;30.466;2022-08-20T16:33:02;21.60;99.90
35313;DHT22;21425;50.454;30.466;2022-08-20T16:35:50;21.10;99.90
35313;DHT22;21425;50.454;30.466;2022-08-20T16:41:23;21.60;99.90
35313;DHT22;21425;50.454;30.466;2022-08-20T16:43:51;22.40;99.90
35313;DHT22;21425;50.454;30.466;2022-08-20T16:46:30;22.60;99.90
35313;DHT22;21425;50.454;30.466;2022-08-20T16:48:58;22.60;99.90
35313;DHT22;21425;50.454;30.466;2022-08-20T16:51:48;22.70;99.90
35313;DHT22;21425;50.454;30.466;2022-08-20T16:54:15;21.40;99.90
35313;DHT22;21425;50.454;30.466;2022-08-20T16:56:47;20.30;99.90
35313;DHT22;21425;50.454;30.466;2022-08-20T16:59:16;22.70;99.90
35313;DHT22;21425;50.454;30.466;2022-08-20T17:01:42;22.40;99.90
35313;DHT22;21425;50.454;30.466;2022-08-20T17:04:19;21.40;99.90
35313;DHT22;21425;50.454;30.466;2022-08-20T17:06:47;22.00;99.90
35313;DHT22;21425;50.454;30.466;2022-08-20T17:09:21;21.30;99.90
35313;DHT22;21425;50.454;30.466;2022-08-20T17:12:12;21.30;99.90
35313;DHT22;21425;50.454;30.466;2022-08-20T17:15:04;20.30;99.90
35313;DHT22;21425;50.454;30.466;2022-08-20T17:17:32;20.80;99.90
35313;DHT22;21425;50.454;30.466;2022-08-20T17:20:13;21.20;99.90
35313;DHT22;21425;50.454;30.466;2022-08-20T17:22:43;20.50;99.90
35313;DHT22;21425;50.454;30.466;2022-08-20T17:25:18;21.00;99.90
35313;DHT22;21425;50.454;30.466;2022-08-20T17:27:45;21.00;99.90